Aérodrome :
LOGIN :

S'inscrire | Disclaimer

   EN    FR    IT 

 










Légende :    VFR   VFR Marginal   IFR   IFR Intensif   IFR Très Intensif
Visi : 
Plafond : 
>= 8 km
>= 3000ft
5 à 8 km
1000 à 3000 ft
1500m à 5 km
500 à 1000 ft
800 à 1500m
200 à 500 ft
< 800m
< 200 ft
Symboles :   Orages  Brouillard  Fortes neiges  Fortes précipitations  Vent > 20 kt
SIGMETs :   Divers  Orages  Givrage  Turbulence  Onde Orograph.  Cendres Volcan.






- Altitude de l'aérodrome : 37 ft
- Code IATA : OLB


LIEO - Olbia Costa Smeralda

DERNIER METAR :
  • 240450Z 24014KT CAVOK 08/05 Q1007

METARs EXPIRÉS :
  • 240420Z 24012KT CAVOK 08/05 Q1007
  • 240350Z 24015KT 9999 FEW050 08/05 Q1007
  • 240320Z 23013KT 9999 FEW040 08/05 Q1007
  • 240250Z 22010KT 9999 -RA FEW040 08/06 Q1007
  • 240220Z 22011KT 9999 -RA SCT030 08/06 Q1008 RERA
  • 240150Z 23014KT 9999 RA SCT040 08/06 Q1008
  • 240120Z 24015KT 9999 FEW050 08/05 Q1008
  • 240050Z 25009KT 9999 SCT050 08/05 Q1008
  • 240020Z 26008KT 9999 SCT050 09/05 Q1009

TAF TAF LIEO
Valide du 24 à 00h jusqu'au 25 à 00h UTC


232300Z 2400/2424 25016KT 9999 SCT030
TEMPO 2400/2405 25018G30KT
TEMPO 2403/2409 SHRA
BECMG 2405/2407 27022G34KT



MET'MAP, la Météo Aéronautique d'un coup d'oeil ! - Copyright ORBIFLY Décembre 2007 - Disclaimer

ORBIFLY MET'MAP TEAM :

Programmation & Développement : Alexandra Zaïnal
Sur une idée originale de : Baudouin d'Aumeries
Soutien technique & logistique : Manuel Goepfert
Assistance : Marc-Olivier Méhu




SOURCES & CREDITS :

   NOAA